Webster, North Dakota
Current Conditions -  °F | °C
As of 1:35 PM on Tuesday 21 Oct 2014 (Local Time) from KDVL Reporting Station
Clear Clear  
Wind Chill: 63°   Ceiling: Unl
Heat Index: 63°   Visibility: 10mi
Dew Point: 39°   Wind: 25mph
Humidity: 42%   Direction: 150°SSE
Pressure: 29.8"   Gusts: 31mph
Location:  48.28°N, 98.88°W
Report Text: KDVL 211835Z AUTO 15022G27KT 10SM CLR 17/04 A2980 RMK AO1
Loading
Personal Weather Stations






























Interactive Weather Map
Tropical Storm Tracking
New forecast layout! Learn more

10-Day Weather Forecast

Advertisements
Track Severe Weather on mobile